Terminal Aerodrome Forecast
Issued by NWS Sterling, VA

Current Version | Previous Version | Text Only | Print | Product List | Glossary Off
Versions: 1 2 3 4 5 6 7 8 9 10 11 12

000
FTUS41 KLWX 251100
TAFMRB
TAF
KMRB 251136Z 2512/2612 27012KT P6SM BKN050
     FM251400 28013G22KT P6SM BKN110
     FM251900 29013G24KT P6SM SCT040
     FM252200 28010KT P6SM FEW250
     FM260100 28006KT P6SM FEW250=

USA.gov is the U.S. government's official web portal to all federal, state and local government web resources and services.